sensor_id;sensor_type;location;lat;lon;timestamp;temperature;humidity
38209;DHT22;24016;52.102;11.584;2023-06-04T00:00:00;8.80;99.90
38209;DHT22;24016;52.102;11.584;2023-06-04T00:02:26;8.80;99.90
38209;DHT22;24016;52.102;11.584;2023-06-04T00:04:51;8.80;99.90
38209;DHT22;24016;52.102;11.584;2023-06-04T00:07:17;8.80;99.90
38209;DHT22;24016;52.102;11.584;2023-06-04T00:09:42;8.80;99.90
38209;DHT22;24016;52.102;11.584;2023-06-04T00:12:09;8.70;99.90
38209;DHT22;24016;52.102;11.584;2023-06-04T00:14:34;8.70;99.90
38209;DHT22;24016;52.102;11.584;2023-06-04T00:17:00;8.60;99.90
38209;DHT22;24016;52.102;11.584;2023-06-04T00:19:26;8.60;99.90
38209;DHT22;24016;52.102;11.584;2023-06-04T00:21:51;8.60;99.90
38209;DHT22;24016;52.102;11.584;2023-06-04T00:24:17;8.50;99.90
38209;DHT22;24016;52.102;11.584;2023-06-04T00:26:42;8.50;99.90
38209;DHT22;24016;52.102;11.584;2023-06-04T00:29:08;8.40;99.90
38209;DHT22;24016;52.102;11.584;2023-06-04T00:31:33;8.30;99.90
38209;DHT22;24016;52.102;11.584;2023-06-04T00:33:59;8.30;99.90
38209;DHT22;24016;52.102;11.584;2023-06-04T00:36:24;8.30;99.90
38209;DHT22;24016;52.102;11.584;2023-06-04T00:38:50;8.20;99.90
38209;DHT22;24016;52.102;11.584;2023-06-04T00:41:16;8.20;99.90
38209;DHT22;24016;52.102;11.584;2023-06-04T00:43:41;8.10;99.90
38209;DHT22;24016;52.102;11.584;2023-06-04T00:46:11;8.10;99.90
38209;DHT22;24016;52.102;11.584;2023-06-04T00:48:43;8.10;99.90
38209;DHT22;24016;52.102;11.584;2023-06-04T00:51:09;8.00;99.90
38209;DHT22;24016;52.102;11.584;2023-06-04T00:53:35;8.00;99.90
38209;DHT22;24016;52.102;11.584;2023-06-04T00:56:00;8.00;99.90
38209;DHT22;24016;52.102;11.584;2023-06-04T00:58:26;8.00;99.90
38209;DHT22;24016;52.102;11.584;2023-06-04T01:00:53;7.90;99.90
38209;DHT22;24016;52.102;11.584;2023-06-04T01:03:24;7.90;99.90
38209;DHT22;24016;52.102;11.584;2023-06-04T01:06:59;7.90;99.90
38209;DHT22;24016;52.102;11.584;2023-06-04T01:09:00;7.90;99.90
38209;DHT22;24016;52.102;11.584;2023-06-04T01:11:38;7.80;99.90
38209;DHT22;24016;52.102;11.584;2023-06-04T01:14:05;7.80;99.90
38209;DHT22;24016;52.102;11.584;2023-06-04T01:16:49;7.80;99.90
38209;DHT22;24016;52.102;11.584;2023-06-04T01:27:57;7.70;99.90
38209;DHT22;24016;52.102;11.584;2023-06-04T01:32:53;7.60;99.90
38209;DHT22;24016;52.102;11.584;2023-06-04T01:35:25;7.60;99.90
38209;DHT22;24016;52.102;11.584;2023-06-04T01:37:51;7.60;99.90
38209;DHT22;24016;52.102;11.584;2023-06-04T01:40:17;7.50;99.90
38209;DHT22;24016;52.102;11.584;2023-06-04T01:42:42;7.50;99.90
38209;DHT22;24016;52.102;11.584;2023-06-04T01:45:09;7.60;99.90
38209;DHT22;24016;52.102;11.584;2023-06-04T01:47:34;7.40;99.90
38209;DHT22;24016;52.102;11.584;2023-06-04T01:50:01;7.30;99.90
38209;DHT22;24016;52.102;11.584;2023-06-04T01:52:26;7.30;99.90
38209;DHT22;24016;52.102;11.584;2023-06-04T01:54:52;7.30;99.90
38209;DHT22;24016;52.102;11.584;2023-06-04T01:57:21;7.20;99.90
38209;DHT22;24016;52.102;11.584;2023-06-04T01:59:47;7.20;99.90
38209;DHT22;24016;52.102;11.584;2023-06-04T02:02:13;7.10;99.90
38209;DHT22;24016;52.102;11.584;2023-06-04T02:04:39;7.00;99.90
38209;DHT22;24016;52.102;11.584;2023-06-04T02:07:10;7.00;99.90
38209;DHT22;24016;52.102;11.584;2023-06-04T02:09:36;7.00;99.90
38209;DHT22;24016;52.102;11.584;2023-06-04T02:12:02;6.90;99.90
38209;DHT22;24016;52.102;11.584;2023-06-04T02:14:28;6.80;99.90
38209;DHT22;24016;52.102;11.584;2023-06-04T02:16:54;6.80;99.90
38209;DHT22;24016;52.102;11.584;2023-06-04T02:19:23;6.80;99.90
38209;DHT22;24016;52.102;11.584;2023-06-04T02:21:48;6.70;99.90
38209;DHT22;24016;52.102;11.584;2023-06-04T02:24:14;6.60;99.90
38209;DHT22;24016;52.102;11.584;2023-06-04T02:26:39;6.70;99.90
38209;DHT22;24016;52.102;11.584;2023-06-04T02:29:05;6.60;99.90
38209;DHT22;24016;52.102;11.584;2023-06-04T02:31:30;6.60;99.90
38209;DHT22;24016;52.102;11.584;2023-06-04T02:33:56;6.50;99.90
38209;DHT22;24016;52.102;11.584;2023-06-04T02:36:22;6.50;99.90
38209;DHT22;24016;52.102;11.584;2023-06-04T02:38:47;6.50;99.90
38209;DHT22;24016;52.102;11.584;2023-06-04T02:41:13;6.50;99.90
38209;DHT22;24016;52.102;11.584;2023-06-04T02:43:38;6.50;99.90
38209;DHT22;24016;52.102;11.584;2023-06-04T02:46:03;6.40;99.90
38209;DHT22;24016;52.102;11.584;2023-06-04T02:48:29;6.40;99.90
38209;DHT22;24016;52.102;11.584;2023-06-04T02:50:55;6.40;99.90
38209;DHT22;24016;52.102;11.584;2023-06-04T02:53:20;6.40;99.90
38209;DHT22;24016;52.102;11.584;2023-06-04T02:55:46;6.40;99.90
38209;DHT22;24016;52.102;11.584;2023-06-04T02:58:11;6.40;99.90
38209;DHT22;24016;52.102;11.584;2023-06-04T03:00:37;6.40;99.90
38209;DHT22;24016;52.102;11.584;2023-06-04T03:03:02;6.40;99.90
38209;DHT22;24016;52.102;11.584;2023-06-04T03:05:28;6.30;99.90
38209;DHT22;24016;52.102;11.584;2023-06-04T03:07:57;6.30;99.90
38209;DHT22;24016;52.102;11.584;2023-06-04T03:10:23;6.30;99.90
38209;DHT22;24016;52.102;11.584;2023-06-04T03:12:49;6.30;99.90
38209;DHT22;24016;52.102;11.584;2023-06-04T03:15:14;6.30;99.90
38209;DHT22;24016;52.102;11.584;2023-06-04T03:17:41;6.30;99.90
38209;DHT22;24016;52.102;11.584;2023-06-04T03:20:07;6.30;99.90
38209;DHT22;24016;52.102;11.584;2023-06-04T03:22:33;6.20;99.90
38209;DHT22;24016;52.102;11.584;2023-06-04T03:25:01;6.20;99.90
38209;DHT22;24016;52.102;11.584;2023-06-04T03:27:26;6.20;99.90
38209;DHT22;24016;52.102;11.584;2023-06-04T03:29:52;6.10;99.90
38209;DHT22;24016;52.102;11.584;2023-06-04T03:32:17;6.20;99.90
38209;DHT22;24016;52.102;11.584;2023-06-04T03:34:43;6.10;99.90
38209;DHT22;24016;52.102;11.584;2023-06-04T03:37:09;6.10;99.90
38209;DHT22;24016;52.102;11.584;2023-06-04T03:39:35;6.20;99.90
38209;DHT22;24016;52.102;11.584;2023-06-04T03:42:00;6.20;99.90
38209;DHT22;24016;52.102;11.584;2023-06-04T03:44:26;6.20;99.90
38209;DHT22;24016;52.102;11.584;2023-06-04T03:46:51;6.20;99.90
38209;DHT22;24016;52.102;11.584;2023-06-04T03:49:17;6.10;99.90
38209;DHT22;24016;52.102;11.584;2023-06-04T03:51:43;6.20;99.90
38209;DHT22;24016;52.102;11.584;2023-06-04T03:54:09;6.30;99.90
38209;DHT22;24016;52.102;11.584;2023-06-04T03:56:35;6.30;99.90
38209;DHT22;24016;52.102;11.584;2023-06-04T03:59:00;6.30;99.90
38209;DHT22;24016;52.102;11.584;2023-06-04T04:01:26;6.30;99.90
38209;DHT22;24016;52.102;11.584;2023-06-04T04:03:52;6.40;99.90
38209;DHT22;24016;52.102;11.584;2023-06-04T04:06:18;6.40;99.90
38209;DHT22;24016;52.102;11.584;2023-06-04T04:08:44;6.30;99.90
38209;DHT22;24016;52.102;11.584;2023-06-04T04:11:10;6.50;99.90
38209;DHT22;24016;52.102;11.584;2023-06-04T04:13:36;6.50;99.90
38209;DHT22;24016;52.102;11.584;2023-06-04T04:16:01;6.60;99.90
38209;DHT22;24016;52.102;11.584;2023-06-04T04:18:27;6.60;99.90
38209;DHT22;24016;52.102;11.584;2023-06-04T04:20:53;6.70;99.90
38209;DHT22;24016;52.102;11.584;2023-06-04T04:23:18;6.80;99.90
38209;DHT22;24016;52.102;11.584;2023-06-04T04:25:44;6.90;99.90
38209;DHT22;24016;52.102;11.584;2023-06-04T04:28:09;7.00;99.90
38209;DHT22;24016;52.102;11.584;2023-06-04T04:30:35;7.10;99.90
38209;DHT22;24016;52.102;11.584;2023-06-04T04:33:04;7.20;99.90
38209;DHT22;24016;52.102;11.584;2023-06-04T04:35:31;7.20;99.90
38209;DHT22;24016;52.102;11.584;2023-06-04T04:37:58;7.30;99.90
38209;DHT22;24016;52.102;11.584;2023-06-04T04:40:24;7.40;99.90
38209;DHT22;24016;52.102;11.584;2023-06-04T04:42:50;7.50;99.90
38209;DHT22;24016;52.102;11.584;2023-06-04T04:45:15;7.50;99.90
38209;DHT22;24016;52.102;11.584;2023-06-04T04:47:42;7.60;99.90
38209;DHT22;24016;52.102;11.584;2023-06-04T04:50:08;7.70;99.90
38209;DHT22;24016;52.102;11.584;2023-06-04T04:52:34;7.70;99.90
38209;DHT22;24016;52.102;11.584;2023-06-04T04:54:59;7.80;99.90
38209;DHT22;24016;52.102;11.584;2023-06-04T04:57:25;7.90;99.90
38209;DHT22;24016;52.102;11.584;2023-06-04T04:59:50;8.10;99.90
38209;DHT22;24016;52.102;11.584;2023-06-04T05:02:16;8.20;99.90
38209;DHT22;24016;52.102;11.584;2023-06-04T05:04:41;8.30;99.90
38209;DHT22;24016;52.102;11.584;2023-06-04T05:07:07;8.40;99.90
38209;DHT22;24016;52.102;11.584;2023-06-04T05:09:32;8.50;99.90
38209;DHT22;24016;52.102;11.584;2023-06-04T05:11:58;8.60;99.90
38209;DHT22;24016;52.102;11.584;2023-06-04T05:14:24;8.70;99.90
38209;DHT22;24016;52.102;11.584;2023-06-04T05:16:49;8.80;99.90
38209;DHT22;24016;52.102;11.584;2023-06-04T05:19:18;8.90;99.90
38209;DHT22;24016;52.102;11.584;2023-06-04T05:21:44;9.00;99.90
38209;DHT22;24016;52.102;11.584;2023-06-04T05:24:10;9.20;99.90
38209;DHT22;24016;52.102;11.584;2023-06-04T05:26:36;9.30;99.90
38209;DHT22;24016;52.102;11.584;2023-06-04T05:29:02;9.40;99.90
38209;DHT22;24016;52.102;11.584;2023-06-04T05:31:29;9.50;99.90
38209;DHT22;24016;52.102;11.584;2023-06-04T05:33:58;9.60;99.90
38209;DHT22;24016;52.102;11.584;2023-06-04T05:36:27;9.80;99.90
38209;DHT22;24016;52.102;11.584;2023-06-04T05:38:52;10.00;99.90
38209;DHT22;24016;52.102;11.584;2023-06-04T05:41:23;10.10;99.90
38209;DHT22;24016;52.102;11.584;2023-06-04T05:43:49;10.30;99.90
38209;DHT22;24016;52.102;11.584;2023-06-04T05:46:14;10.40;99.90
38209;DHT22;24016;52.102;11.584;2023-06-04T05:48:40;10.60;99.90
38209;DHT22;24016;52.102;11.584;2023-06-04T05:51:05;10.80;99.90
38209;DHT22;24016;52.102;11.584;2023-06-04T05:53:33;11.00;99.90
38209;DHT22;24016;52.102;11.584;2023-06-04T05:55:58;11.20;99.90
38209;DHT22;24016;52.102;11.584;2023-06-04T05:58:24;11.40;99.90
38209;DHT22;24016;52.102;11.584;2023-06-04T06:00:50;11.60;99.90
38209;DHT22;24016;52.102;11.584;2023-06-04T06:03:16;11.70;99.90
38209;DHT22;24016;52.102;11.584;2023-06-04T06:05:42;11.90;99.90
38209;DHT22;24016;52.102;11.584;2023-06-04T06:08:08;12.10;99.90
38209;DHT22;24016;52.102;11.584;2023-06-04T06:10:33;12.30;99.90
38209;DHT22;24016;52.102;11.584;2023-06-04T06:12:59;12.50;99.90
38209;DHT22;24016;52.102;11.584;2023-06-04T06:15:26;12.70;99.90
38209;DHT22;24016;52.102;11.584;2023-06-04T06:17:52;12.90;99.90
38209;DHT22;24016;52.102;11.584;2023-06-04T06:20:18;13.00;99.90
38209;DHT22;24016;52.102;11.584;2023-06-04T06:22:44;13.10;99.90
38209;DHT22;24016;52.102;11.584;2023-06-04T06:25:10;13.20;99.90
38209;DHT22;24016;52.102;11.584;2023-06-04T06:27:38;13.30;99.90
38209;DHT22;24016;52.102;11.584;2023-06-04T06:30:05;13.50;99.90
38209;DHT22;24016;52.102;11.584;2023-06-04T06:32:31;13.60;99.90
38209;DHT22;24016;52.102;11.584;2023-06-04T06:34:56;13.70;99.90
38209;DHT22;24016;52.102;11.584;2023-06-04T06:37:22;13.80;99.90
38209;DHT22;24016;52.102;11.584;2023-06-04T06:39:47;13.90;99.90
38209;DHT22;24016;52.102;11.584;2023-06-04T06:42:13;14.00;99.90
38209;DHT22;24016;52.102;11.584;2023-06-04T06:44:38;14.20;99.90
38209;DHT22;24016;52.102;11.584;2023-06-04T06:47:04;14.30;99.90
38209;DHT22;24016;52.102;11.584;2023-06-04T06:49:29;14.60;99.90
38209;DHT22;24016;52.102;11.584;2023-06-04T06:51:55;14.70;99.80
38209;DHT22;24016;52.102;11.584;2023-06-04T06:54:20;14.80;99.90
38209;DHT22;24016;52.102;11.584;2023-06-04T06:56:48;15.00;99.80
38209;DHT22;24016;52.102;11.584;2023-06-04T06:59:15;15.20;99.40
38209;DHT22;24016;52.102;11.584;2023-06-04T07:01:40;15.40;98.90
38209;DHT22;24016;52.102;11.584;2023-06-04T07:04:06;15.50;97.40
38209;DHT22;24016;52.102;11.584;2023-06-04T07:06:31;15.60;96.50
38209;DHT22;24016;52.102;11.584;2023-06-04T07:08:58;15.70;95.90
38209;DHT22;24016;52.102;11.584;2023-06-04T07:11:24;15.80;95.60
38209;DHT22;24016;52.102;11.584;2023-06-04T07:13:51;15.90;95.80
38209;DHT22;24016;52.102;11.584;2023-06-04T07:16:16;16.00;96.20
38209;DHT22;24016;52.102;11.584;2023-06-04T07:18:43;16.10;95.10
38209;DHT22;24016;52.102;11.584;2023-06-04T07:21:08;16.20;95.40
38209;DHT22;24016;52.102;11.584;2023-06-04T07:23:34;16.40;95.60
38209;DHT22;24016;52.102;11.584;2023-06-04T07:25:59;16.70;94.70
38209;DHT22;24016;52.102;11.584;2023-06-04T07:28:25;16.90;94.30
38209;DHT22;24016;52.102;11.584;2023-06-04T07:30:51;16.80;94.30
38209;DHT22;24016;52.102;11.584;2023-06-04T07:33:16;16.90;93.50
38209;DHT22;24016;52.102;11.584;2023-06-04T07:35:42;17.20;93.40
38209;DHT22;24016;52.102;11.584;2023-06-04T07:38:07;17.40;94.80
38209;DHT22;24016;52.102;11.584;2023-06-04T07:40:34;17.30;92.00
38209;DHT22;24016;52.102;11.584;2023-06-04T07:42:59;17.50;92.00
38209;DHT22;24016;52.102;11.584;2023-06-04T07:45:25;17.80;91.20
38209;DHT22;24016;52.102;11.584;2023-06-04T07:47:50;18.10;90.10
38209;DHT22;24016;52.102;11.584;2023-06-04T07:50:16;18.30;88.50
38209;DHT22;24016;52.102;11.584;2023-06-04T07:52:42;18.50;88.20
38209;DHT22;24016;52.102;11.584;2023-06-04T07:55:08;18.60;90.10
38209;DHT22;24016;52.102;11.584;2023-06-04T07:57:34;18.80;89.40
38209;DHT22;24016;52.102;11.584;2023-06-04T08:00:00;19.70;85.70
38209;DHT22;24016;52.102;11.584;2023-06-04T08:02:27;20.80;84.70
38209;DHT22;24016;52.102;11.584;2023-06-04T08:04:53;21.70;84.10
38209;DHT22;24016;52.102;11.584;2023-06-04T08:07:19;22.50;81.20
38209;DHT22;24016;52.102;11.584;2023-06-04T08:09:44;23.20;78.80
38209;DHT22;24016;52.102;11.584;2023-06-04T08:12:10;24.10;76.90
38209;DHT22;24016;52.102;11.584;2023-06-04T08:14:36;25.10;73.90
38209;DHT22;24016;52.102;11.584;2023-06-04T08:17:01;24.60;72.40
38209;DHT22;24016;52.102;11.584;2023-06-04T08:19:27;24.40;74.20
38209;DHT22;24016;52.102;11.584;2023-06-04T08:21:53;24.80;73.70
38209;DHT22;24016;52.102;11.584;2023-06-04T08:24:18;24.70;72.70
38209;DHT22;24016;52.102;11.584;2023-06-04T08:26:44;25.70;70.50
38209;DHT22;24016;52.102;11.584;2023-06-04T08:29:10;26.20;69.10
38209;DHT22;24016;52.102;11.584;2023-06-04T08:31:35;26.50;67.30
38209;DHT22;24016;52.102;11.584;2023-06-04T08:34:01;26.80;67.50
38209;DHT22;24016;52.102;11.584;2023-06-04T08:36:27;26.30;68.10
38209;DHT22;24016;52.102;11.584;2023-06-04T08:38:53;25.90;68.60
38209;DHT22;24016;52.102;11.584;2023-06-04T08:43:59;24.90;66.00
38209;DHT22;24016;52.102;11.584;2023-06-04T08:46:27;25.00;68.40
38209;DHT22;24016;52.102;11.584;2023-06-04T08:48:54;25.00;65.10
38209;DHT22;24016;52.102;11.584;2023-06-04T08:51:21;25.40;64.60
38209;DHT22;24016;52.102;11.584;2023-06-04T08:53:46;26.00;65.50
38209;DHT22;24016;52.102;11.584;2023-06-04T08:56:16;26.20;64.50
38209;DHT22;24016;52.102;11.584;2023-06-04T08:58:43;26.60;64.10
38209;DHT22;24016;52.102;11.584;2023-06-04T09:01:09;27.00;64.70
38209;DHT22;24016;52.102;11.584;2023-06-04T09:03:36;26.40;63.80
38209;DHT22;24016;52.102;11.584;2023-06-04T09:06:03;25.70;63.40
38209;DHT22;24016;52.102;11.584;2023-06-04T09:08:34;25.10;64.70
38209;DHT22;24016;52.102;11.584;2023-06-04T09:11:05;25.70;64.50
38209;DHT22;24016;52.102;11.584;2023-06-04T09:13:31;25.70;64.30
38209;DHT22;24016;52.102;11.584;2023-06-04T09:16:02;25.90;62.70
38209;DHT22;24016;52.102;11.584;2023-06-04T09:18:28;26.10;63.20
38209;DHT22;24016;52.102;11.584;2023-06-04T09:21:07;25.80;63.80
38209;DHT22;24016;52.102;11.584;2023-06-04T09:23:47;25.10;63.70
38209;DHT22;24016;52.102;11.584;2023-06-04T09:26:12;25.20;64.20
38209;DHT22;24016;52.102;11.584;2023-06-04T09:28:42;25.80;63.80
38209;DHT22;24016;52.102;11.584;2023-06-04T09:31:17;26.40;62.10
38209;DHT22;24016;52.102;11.584;2023-06-04T09:33:49;26.60;63.10
38209;DHT22;24016;52.102;11.584;2023-06-04T09:36:16;26.90;60.10
38209;DHT22;24016;52.102;11.584;2023-06-04T09:38:42;27.20;63.30
38209;DHT22;24016;52.102;11.584;2023-06-04T09:41:12;27.50;63.60
38209;DHT22;24016;52.102;11.584;2023-06-04T09:43:37;27.30;63.10
38209;DHT22;24016;52.102;11.584;2023-06-04T09:46:16;25.70;62.30
38209;DHT22;24016;52.102;11.584;2023-06-04T09:48:43;26.00;62.80
38209;DHT22;24016;52.102;11.584;2023-06-04T09:51:14;25.40;64.50
38209;DHT22;24016;52.102;11.584;2023-06-04T09:53:54;25.00;63.60
38209;DHT22;24016;52.102;11.584;2023-06-04T09:56:20;24.70;64.20
38209;DHT22;24016;52.102;11.584;2023-06-04T09:58:48;25.40;62.80
38209;DHT22;24016;52.102;11.584;2023-06-04T10:01:14;26.40;62.50
38209;DHT22;24016;52.102;11.584;2023-06-04T10:03:44;26.90;62.30
38209;DHT22;24016;52.102;11.584;2023-06-04T10:06:15;26.90;59.90
38209;DHT22;24016;52.102;11.584;2023-06-04T10:08:43;27.30;63.50
38209;DHT22;24016;52.102;11.584;2023-06-04T10:11:12;26.60;60.70
38209;DHT22;24016;52.102;11.584;2023-06-04T10:13:47;26.90;59.80
38209;DHT22;24016;52.102;11.584;2023-06-04T10:16:14;27.40;59.30
38209;DHT22;24016;52.102;11.584;2023-06-04T10:18:40;27.60;62.00
38209;DHT22;24016;52.102;11.584;2023-06-04T10:21:06;27.80;60.30
38209;DHT22;24016;52.102;11.584;2023-06-04T10:23:33;28.10;58.60
38209;DHT22;24016;52.102;11.584;2023-06-04T10:25:59;28.00;59.20
38209;DHT22;24016;52.102;11.584;2023-06-04T10:28:26;27.90;60.70
38209;DHT22;24016;52.102;11.584;2023-06-04T10:30:51;28.50;59.70
38209;DHT22;24016;52.102;11.584;2023-06-04T10:33:20;28.50;57.80
38209;DHT22;24016;52.102;11.584;2023-06-04T10:35:53;28.80;57.30
38209;DHT22;24016;52.102;11.584;2023-06-04T10:38:19;27.80;58.40
38209;DHT22;24016;52.102;11.584;2023-06-04T10:40:46;26.90;60.30
38209;DHT22;24016;52.102;11.584;2023-06-04T10:43:13;27.60;59.10
38209;DHT22;24016;52.102;11.584;2023-06-04T10:45:40;27.90;60.40
38209;DHT22;24016;52.102;11.584;2023-06-04T10:48:07;28.30;58.60
38209;DHT22;24016;52.102;11.584;2023-06-04T10:50:33;28.40;58.80
38209;DHT22;24016;52.102;11.584;2023-06-04T10:53:00;27.50;58.60
38209;DHT22;24016;52.102;11.584;2023-06-04T10:55:30;27.60;57.80
38209;DHT22;24016;52.102;11.584;2023-06-04T10:58:00;27.80;59.00
38209;DHT22;24016;52.102;11.584;2023-06-04T11:00:46;28.40;59.20
38209;DHT22;24016;52.102;11.584;2023-06-04T11:03:14;28.80;57.70
38209;DHT22;24016;52.102;11.584;2023-06-04T11:05:42;29.40;58.40
38209;DHT22;24016;52.102;11.584;2023-06-04T11:08:09;29.40;56.80
38209;DHT22;24016;52.102;11.584;2023-06-04T11:10:43;28.60;58.80
38209;DHT22;24016;52.102;11.584;2023-06-04T11:13:09;29.20;58.10
38209;DHT22;24016;52.102;11.584;2023-06-04T11:15:42;29.40;57.40
38209;DHT22;24016;52.102;11.584;2023-06-04T11:18:13;29.20;58.50
38209;DHT22;24016;52.102;11.584;2023-06-04T11:20:38;28.90;57.30
38209;DHT22;24016;52.102;11.584;2023-06-04T11:23:04;28.80;58.10
38209;DHT22;24016;52.102;11.584;2023-06-04T11:25:31;29.50;56.00
38209;DHT22;24016;52.102;11.584;2023-06-04T11:27:59;28.90;58.00
38209;DHT22;24016;52.102;11.584;2023-06-04T11:30:26;27.60;57.50
38209;DHT22;24016;52.102;11.584;2023-06-04T11:33:05;27.80;58.10
38209;DHT22;24016;52.102;11.584;2023-06-04T11:35:31;28.40;57.20
38209;DHT22;24016;52.102;11.584;2023-06-04T11:38:04;29.00;56.40
38209;DHT22;24016;52.102;11.584;2023-06-04T11:40:29;28.00;58.10
38209;DHT22;24016;52.102;11.584;2023-06-04T11:42:55;28.80;57.60
38209;DHT22;24016;52.102;11.584;2023-06-04T11:45:22;30.00;55.30
38209;DHT22;24016;52.102;11.584;2023-06-04T11:47:50;29.90;56.20
38209;DHT22;24016;52.102;11.584;2023-06-04T11:50:16;30.90;56.00
38209;DHT22;24016;52.102;11.584;2023-06-04T11:52:42;31.70;55.80
38209;DHT22;24016;52.102;11.584;2023-06-04T11:55:09;31.90;54.20
38209;DHT22;24016;52.102;11.584;2023-06-04T11:57:36;31.50;55.40
38209;DHT22;24016;52.102;11.584;2023-06-04T12:00:02;31.00;57.50
38209;DHT22;24016;52.102;11.584;2023-06-04T12:02:30;30.80;53.90
38209;DHT22;24016;52.102;11.584;2023-06-04T12:04:56;31.10;54.20
38209;DHT22;24016;52.102;11.584;2023-06-04T12:07:21;31.60;55.60
38209;DHT22;24016;52.102;11.584;2023-06-04T12:09:49;31.30;54.70
38209;DHT22;24016;52.102;11.584;2023-06-04T12:12:21;31.40;55.80
38209;DHT22;24016;52.102;11.584;2023-06-04T12:14:57;29.30;56.50
38209;DHT22;24016;52.102;11.584;2023-06-04T12:17:23;29.00;56.60
38209;DHT22;24016;52.102;11.584;2023-06-04T12:19:49;28.70;56.40
38209;DHT22;24016;52.102;11.584;2023-06-04T12:22:15;29.50;55.70
38209;DHT22;24016;52.102;11.584;2023-06-04T12:24:55;29.10;58.60
38209;DHT22;24016;52.102;11.584;2023-06-04T12:27:23;28.80;57.30
38209;DHT22;24016;52.102;11.584;2023-06-04T12:30:05;30.10;55.50
38209;DHT22;24016;52.102;11.584;2023-06-04T12:32:35;29.00;56.00
38209;DHT22;24016;52.102;11.584;2023-06-04T12:35:01;30.60;54.30
38209;DHT22;24016;52.102;11.584;2023-06-04T12:37:26;31.30;55.60
38209;DHT22;24016;52.102;11.584;2023-06-04T12:39:53;31.40;55.10
38209;DHT22;24016;52.102;11.584;2023-06-04T12:42:19;30.40;55.90
38209;DHT22;24016;52.102;11.584;2023-06-04T12:44:45;29.70;56.50
38209;DHT22;24016;52.102;11.584;2023-06-04T12:47:11;30.40;55.10
38209;DHT22;24016;52.102;11.584;2023-06-04T12:49:37;30.30;56.30
38209;DHT22;24016;52.102;11.584;2023-06-04T12:52:04;30.20;55.60
38209;DHT22;24016;52.102;11.584;2023-06-04T12:54:29;30.70;56.90
38209;DHT22;24016;52.102;11.584;2023-06-04T12:56:56;30.80;55.40
38209;DHT22;24016;52.102;11.584;2023-06-04T12:59:22;31.10;55.40
38209;DHT22;24016;52.102;11.584;2023-06-04T13:01:49;32.20;54.60
38209;DHT22;24016;52.102;11.584;2023-06-04T13:04:14;32.50;53.50
38209;DHT22;24016;52.102;11.584;2023-06-04T13:06:40;32.30;54.80
38209;DHT22;24016;52.102;11.584;2023-06-04T13:09:07;32.00;54.10
38209;DHT22;24016;52.102;11.584;2023-06-04T13:11:38;32.30;55.30
38209;DHT22;24016;52.102;11.584;2023-06-04T13:14:04;30.50;55.00
38209;DHT22;24016;52.102;11.584;2023-06-04T13:16:29;31.00;54.20
38209;DHT22;24016;52.102;11.584;2023-06-04T13:18:55;31.10;54.30
38209;DHT22;24016;52.102;11.584;2023-06-04T13:21:21;30.40;54.50
38209;DHT22;24016;52.102;11.584;2023-06-04T13:23:46;30.30;54.20
38209;DHT22;24016;52.102;11.584;2023-06-04T13:26:12;30.90;52.60
38209;DHT22;24016;52.102;11.584;2023-06-04T13:28:38;29.90;53.80
38209;DHT22;24016;52.102;11.584;2023-06-04T13:31:03;29.20;55.40
38209;DHT22;24016;52.102;11.584;2023-06-04T13:33:29;29.20;55.60
38209;DHT22;24016;52.102;11.584;2023-06-04T13:35:55;28.90;55.00
38209;DHT22;24016;52.102;11.584;2023-06-04T13:38:20;29.10;55.00
38209;DHT22;24016;52.102;11.584;2023-06-04T13:40:46;29.60;54.20
38209;DHT22;24016;52.102;11.584;2023-06-04T13:43:11;30.20;53.90
38209;DHT22;24016;52.102;11.584;2023-06-04T13:45:37;29.90;54.30
38209;DHT22;24016;52.102;11.584;2023-06-04T13:48:02;30.70;53.00
38209;DHT22;24016;52.102;11.584;2023-06-04T13:50:32;30.60;53.20
38209;DHT22;24016;52.102;11.584;2023-06-04T13:52:58;30.20;54.70
38209;DHT22;24016;52.102;11.584;2023-06-04T13:55:23;30.10;55.40
38209;DHT22;24016;52.102;11.584;2023-06-04T13:57:49;30.40;54.40
38209;DHT22;24016;52.102;11.584;2023-06-04T14:00:15;30.30;53.30
38209;DHT22;24016;52.102;11.584;2023-06-04T14:02:40;30.40;55.00
38209;DHT22;24016;52.102;11.584;2023-06-04T14:05:06;30.20;54.40
38209;DHT22;24016;52.102;11.584;2023-06-04T14:07:32;30.60;53.10
38209;DHT22;24016;52.102;11.584;2023-06-04T14:09:58;30.60;54.30
38209;DHT22;24016;52.102;11.584;2023-06-04T14:12:24;30.50;53.20
38209;DHT22;24016;52.102;11.584;2023-06-04T14:14:50;30.10;53.50
38209;DHT22;24016;52.102;11.584;2023-06-04T14:17:15;30.90;53.90
38209;DHT22;24016;52.102;11.584;2023-06-04T14:19:41;31.10;52.10
38209;DHT22;24016;52.102;11.584;2023-06-04T14:22:07;31.40;52.90
38209;DHT22;24016;52.102;11.584;2023-06-04T14:24:33;29.50;54.30
38209;DHT22;24016;52.102;11.584;2023-06-04T14:26:58;29.40;54.60
38209;DHT22;24016;52.102;11.584;2023-06-04T14:29:24;29.20;54.00
38209;DHT22;24016;52.102;11.584;2023-06-04T14:31:49;29.30;54.40
38209;DHT22;24016;52.102;11.584;2023-06-04T14:34:15;28.80;55.40
38209;DHT22;24016;52.102;11.584;2023-06-04T14:36:40;28.60;55.00
38209;DHT22;24016;52.102;11.584;2023-06-04T14:39:06;29.00;54.00
38209;DHT22;24016;52.102;11.584;2023-06-04T14:41:32;28.30;55.00
38209;DHT22;24016;52.102;11.584;2023-06-04T14:43:57;27.50;55.90
38209;DHT22;24016;52.102;11.584;2023-06-04T14:46:23;27.70;54.40
38209;DHT22;24016;52.102;11.584;2023-06-04T14:48:49;27.40;55.00
38209;DHT22;24016;52.102;11.584;2023-06-04T14:51:15;27.40;54.00
38209;DHT22;24016;52.102;11.584;2023-06-04T14:53:41;27.30;55.00
38209;DHT22;24016;52.102;11.584;2023-06-04T14:56:06;27.20;55.30
38209;DHT22;24016;52.102;11.584;2023-06-04T14:58:32;27.10;54.40
38209;DHT22;24016;52.102;11.584;2023-06-04T15:01:00;27.10;54.40
38209;DHT22;24016;52.102;11.584;2023-06-04T15:03:29;27.20;56.00
38209;DHT22;24016;52.102;11.584;2023-06-04T15:05:54;26.90;56.10
38209;DHT22;24016;52.102;11.584;2023-06-04T15:08:20;26.70;55.50
38209;DHT22;24016;52.102;11.584;2023-06-04T15:10:45;26.80;54.50
38209;DHT22;24016;52.102;11.584;2023-06-04T15:13:11;26.90;56.80
38209;DHT22;24016;52.102;11.584;2023-06-04T15:15:37;26.90;55.30
38209;DHT22;24016;52.102;11.584;2023-06-04T15:18:02;26.50;55.50
38209;DHT22;24016;52.102;11.584;2023-06-04T15:20:28;26.50;55.30
38209;DHT22;24016;52.102;11.584;2023-06-04T15:22:54;26.40;55.60
38209;DHT22;24016;52.102;11.584;2023-06-04T15:25:20;26.20;57.00
38209;DHT22;24016;52.102;11.584;2023-06-04T15:27:45;25.90;56.90
38209;DHT22;24016;52.102;11.584;2023-06-04T15:30:11;25.50;55.70
38209;DHT22;24016;52.102;11.584;2023-06-04T15:32:36;25.50;57.90